Time;durP1;ratioP1;P1;durP2;ratioP2;P2;SDS_P1;SDS_P2;PMS_P1;PMS_P2;Temp;Humidity;BMP_temperature;BMP_pressure;BME280_temperature;BME280_humidity;BME280_pressure;Samples;Min_cycle;Max_cycle;Signal;HPM_P1;HPM_P2
2021/03/31 00:01:37;;;;;;;12.23;4.53;;;14.80;58.10;;;;;;5070107;28;20029;-57
2021/03/31 00:04:03;;;;;;;33.95;6.03;;;14.70;58.10;;;;;;5070547;28;20033;-57
2021/03/31 00:06:28;;;;;;;9.90;4.55;;;14.60;57.90;;;;;;5070209;28;20469;-58
2021/03/31 00:08:54;;;;;;;11.70;3.67;;;14.60;58.30;;;;;;5071224;28;20033;-59
2021/03/31 00:11:20;;;;;;;6.53;3.95;;;14.70;58.30;;;;;;5069309;28;20069;-59
2021/03/31 00:13:46;;;;;;;8.82;4.35;;;14.70;58.30;;;;;;5069937;28;20076;-57
2021/03/31 00:16:12;;;;;;;11.50;5.22;;;14.60;58.20;;;;;;5052355;28;20067;-58
2021/03/31 00:18:38;;;;;;;10.52;4.22;;;14.60;58.60;;;;;;5068767;28;20081;-59
2021/03/31 00:21:04;;;;;;;8.73;3.92;;;14.60;58.60;;;;;;5066528;28;20504;-58
2021/03/31 00:23:30;;;;;;;13.60;4.20;;;14.60;58.50;;;;;;5049831;28;20075;-59
2021/03/31 00:25:56;;;;;;;6.38;3.40;;;14.60;58.60;;;;;;5050446;28;20112;-57
2021/03/31 00:28:23;;;;;;;9.63;3.47;;;14.60;58.80;;;;;;5050678;28;20025;-57
2021/03/31 00:30:49;;;;;;;7.45;3.60;;;14.50;59.20;;;;;;5053748;28;20165;-59
2021/03/31 00:33:16;;;;;;;6.50;3.65;;;14.40;59.40;;;;;;5045961;28;20071;-59
2021/03/31 00:35:45;;;;;;;8.48;3.65;;;14.40;59.40;;;;;;5052974;28;20331;-58
2021/03/31 00:38:10;;;;;;;8.93;3.10;;;14.30;59.70;;;;;;5036331;28;20033;-58
2021/03/31 00:40:45;;;;;;;8.10;3.42;;;14.30;59.90;;;;;;5054012;28;20158;-58
2021/03/31 00:43:11;;;;;;;9.15;2.83;;;14.30;59.50;;;;;;5036100;28;20071;-59
2021/03/31 00:45:37;;;;;;;8.07;3.70;;;14.30;59.60;;;;;;5053701;28;20497;-58
2021/03/31 00:48:03;;;;;;;6.20;4.00;;;14.30;59.70;;;;;;5036153;28;20025;-58
2021/03/31 00:50:29;;;;;;;9.75;3.45;;;14.30;59.70;;;;;;5053344;28;20458;-60
2021/03/31 00:52:56;;;;;;;6.32;3.38;;;14.30;59.30;;;;;;5053946;28;20091;-58
2021/03/31 00:55:26;;;;;;;8.68;3.55;;;14.40;58.90;;;;;;5053850;28;20020;-57
2021/03/31 00:57:52;;;;;;;8.13;3.38;;;14.30;59.50;;;;;;5053351;28;20032;-58
2021/03/31 01:00:19;;;;;;;8.05;3.58;;;14.20;59.70;;;;;;5053778;28;20437;-58
2021/03/31 01:02:45;;;;;;;55.20;8.73;;;14.20;60.10;;;;;;5053194;28;20064;-58
2021/03/31 01:05:23;;;;;;;18.23;4.40;;;14.20;59.70;;;;;;5053747;28;20413;-58
2021/03/31 01:07:49;;;;;;;13.27;5.10;;;14.10;60.30;;;;;;5053370;28;20107;-58
2021/03/31 01:10:17;;;;;;;7.47;3.78;;;14.00;60.50;;;;;;5035385;28;20071;-57
2021/03/31 01:12:57;;;;;;;11.70;3.67;;;13.90;60.70;;;;;;5034951;28;20033;-58
2021/03/31 01:15:34;;;;;;;6.07;4.32;;;13.90;60.70;;;;;;5054073;28;20072;-58
2021/03/31 01:18:15;;;;;;;9.13;4.45;;;13.90;61.20;;;;;;5053437;28;20032;-58
2021/03/31 01:21:15;;;;;;;7.93;3.75;;;13.90;61.30;;;;;;5052616;28;20029;-60
2021/03/31 01:24:12;;;;;;;6.57;3.80;;;13.90;61.80;;;;;;5052617;28;20033;-57
2021/03/31 01:27:09;;;;;;;10.20;4.05;;;13.80;62.10;;;;;;5052895;28;20415;-58
2021/03/31 01:30:03;;;;;;;11.98;4.10;;;13.80;61.80;;;;;;5048610;28;20043;-58
2021/03/31 01:32:42;;;;;;;15.88;4.30;;;13.90;61.90;;;;;;5053431;28;20028;-58
2021/03/31 01:35:13;;;;;;;6.95;3.58;;;13.70;62.80;;;;;;5053265;28;20029;-58
2021/03/31 01:38:06;;;;;;;6.35;3.88;;;13.80;62.20;;;;;;5034716;28;20068;-57
2021/03/31 01:40:37;;;;;;;14.45;4.53;;;13.80;62.00;;;;;;5051779;28;20025;-62
2021/03/31 01:43:10;;;;;;;10.57;3.28;;;13.60;62.80;;;;;;5052468;28;20509;-58
2021/03/31 01:45:38;;;;;;;8.40;3.28;;;13.60;63.00;;;;;;5052436;28;20060;-58
2021/03/31 01:48:10;;;;;;;13.88;3.35;;;13.70;62.70;;;;;;5052915;28;20033;-58
2021/03/31 01:50:38;;;;;;;6.50;3.95;;;13.60;62.50;;;;;;5052342;28;20048;-57
2021/03/31 01:53:05;;;;;;;10.13;3.80;;;13.60;62.80;;;;;;5052706;28;20036;-58
2021/03/31 01:55:34;;;;;;;5.43;3.80;;;13.60;63.40;;;;;;5052642;28;20159;-57
2021/03/31 01:58:02;;;;;;;12.60;3.65;;;13.60;63.70;;;;;;5052639;28;20057;-57
2021/03/31 02:00:32;;;;;;;7.43;3.15;;;13.50;63.80;;;;;;5052484;28;20367;-58
2021/03/31 02:02:59;;;;;;;12.35;3.53;;;13.50;63.60;;;;;;5052311;28;20044;-58
2021/03/31 02:05:29;;;;;;;12.07;4.07;;;13.50;63.90;;;;;;5018102;28;20028;-58
2021/03/31 02:07:55;;;;;;;7.00;3.63;;;13.50;63.80;;;;;;5051992;28;20043;-58
2021/03/31 02:10:23;;;;;;;7.80;3.35;;;13.50;63.60;;;;;;5052314;28;20020;-58
2021/03/31 02:12:49;;;;;;;11.10;3.25;;;13.50;63.30;;;;;;5051510;28;20084;-58
2021/03/31 02:15:19;;;;;;;10.63;4.00;;;13.40;63.40;;;;;;5052670;28;20107;-58
2021/03/31 02:17:46;;;;;;;5.80;4.25;;;13.30;64.00;;;;;;5051948;28;20025;-57
2021/03/31 02:20:16;;;;;;;11.50;4.65;;;13.00;64.70;;;;;;5034327;28;20033;-57
2021/03/31 02:22:42;;;;;;;7.72;4.10;;;12.90;65.10;;;;;;5051878;28;20049;-57
2021/03/31 02:25:10;;;;;;;7.70;4.45;;;12.80;65.50;;;;;;5034499;28;20115;-58
2021/03/31 02:27:37;;;;;;;8.55;4.45;;;12.70;65.60;;;;;;5051488;28;20090;-60
2021/03/31 02:30:04;;;;;;;11.73;5.43;;;12.90;66.10;;;;;;5034338;28;20502;-59
2021/03/31 02:32:30;;;;;;;6.55;4.13;;;12.90;65.40;;;;;;5033947;28;20040;-60
2021/03/31 02:34:58;;;;;;;12.13;4.45;;;12.90;65.50;;;;;;5035845;28;20143;-60
2021/03/31 02:37:24;;;;;;;7.85;4.95;;;12.90;65.80;;;;;;5014378;28;20526;-58
2021/03/31 02:39:52;;;;;;;10.77;5.20;;;13.00;65.00;;;;;;5031602;28;20038;-58
2021/03/31 02:42:21;;;;;;;11.55;5.25;;;13.00;65.60;;;;;;5031701;28;20033;-57
2021/03/31 02:44:50;;;;;;;14.38;5.60;;;13.00;65.50;;;;;;5031142;28;20128;-59
2021/03/31 02:47:18;;;;;;;10.52;5.57;;;13.00;65.30;;;;;;5032146;28;20041;-58
2021/03/31 02:49:48;;;;;;;10.88;5.10;;;13.10;65.60;;;;;;5031341;28;20049;-57
2021/03/31 02:52:16;;;;;;;8.50;4.57;;;12.90;65.90;;;;;;5031281;28;20479;-60
2021/03/31 02:54:43;;;;;;;11.63;5.00;;;12.90;66.00;;;;;;5030844;28;20497;-57
2021/03/31 02:57:10;;;;;;;6.07;4.00;;;12.80;66.30;;;;;;5031630;28;20422;-59
2021/03/31 02:59:47;;;;;;;10.68;4.95;;;12.80;66.40;;;;;;5031880;28;20095;-64
2021/03/31 03:02:16;;;;;;;13.38;4.85;;;12.70;67.30;;;;;;5031397;28;20541;-59
2021/03/31 03:04:45;;;;;;;8.75;4.55;;;12.70;66.60;;;;;;5030822;28;20530;-58
2021/03/31 03:07:11;;;;;;;12.02;4.43;;;12.80;66.30;;;;;;5031371;28;20025;-59
2021/03/31 03:09:37;;;;;;;9.35;4.28;;;12.70;66.40;;;;;;5013744;28;20032;-58
2021/03/31 03:12:03;;;;;;;8.20;4.25;;;12.60;66.30;;;;;;5031204;28;20509;-58
2021/03/31 03:14:30;;;;;;;8.55;4.15;;;12.60;66.00;;;;;;5013295;28;20026;-59
2021/03/31 03:16:56;;;;;;;8.90;4.43;;;12.50;66.70;;;;;;5013117;28;20033;-59
2021/03/31 03:19:21;;;;;;;10.45;4.32;;;12.50;67.00;;;;;;5031328;28;20021;-58
2021/03/31 03:21:49;;;;;;;6.60;4.50;;;12.40;67.40;;;;;;5030359;28;20121;-59
2021/03/31 03:24:16;;;;;;;10.32;5.07;;;12.50;67.50;;;;;;5031195;28;20530;-58
2021/03/31 03:26:42;;;;;;;6.22;4.45;;;12.50;67.20;;;;;;5030507;28;20045;-57
2021/03/31 03:29:09;;;;;;;7.10;4.38;;;12.20;67.40;;;;;;5031314;28;20037;-57
2021/03/31 03:31:37;;;;;;;8.20;4.72;;;12.20;68.10;;;;;;5031491;28;20053;-58
2021/03/31 03:34:07;;;;;;;11.27;4.82;;;12.30;68.10;;;;;;5030352;28;20449;-57
2021/03/31 03:36:34;;;;;;;8.73;4.57;;;12.40;68.00;;;;;;5031161;28;20025;-58
2021/03/31 03:38:59;;;;;;;10.10;5.00;;;12.40;67.80;;;;;;5030300;28;20026;-59
2021/03/31 03:41:25;;;;;;;7.00;4.22;;;12.50;67.50;;;;;;5030898;28;20040;-58
2021/03/31 03:43:55;;;;;;;10.13;4.55;;;12.40;67.60;;;;;;5030148;28;20057;-59
2021/03/31 03:46:21;;;;;;;5.60;4.53;;;12.30;68.10;;;;;;5029618;28;20036;-59
2021/03/31 03:48:47;;;;;;;12.20;5.28;;;12.30;68.20;;;;;;5011878;28;20029;-59
2021/03/31 03:51:13;;;;;;;9.10;4.63;;;12.30;68.30;;;;;;5030857;28;20377;-59
2021/03/31 03:53:39;;;;;;;12.43;4.72;;;12.40;68.00;;;;;;5012529;28;20029;-59
2021/03/31 03:56:11;;;;;;;9.05;4.80;;;12.30;68.60;;;;;;5029364;28;20057;-58
2021/03/31 03:58:36;;;;;;;6.97;3.85;;;12.30;68.70;;;;;;5012782;28;20033;-59
2021/03/31 04:01:03;;;;;;;13.27;5.20;;;12.30;68.90;;;;;;5029558;28;20601;-58
2021/03/31 04:03:28;;;;;;;10.45;4.78;;;12.30;68.30;;;;;;5030470;28;20036;-60
2021/03/31 04:05:54;;;;;;;18.73;4.90;;;12.40;67.70;;;;;;5015865;28;20124;-59
2021/03/31 04:08:20;;;;;;;13.27;4.30;;;12.40;67.80;;;;;;5015882;28;20029;-59
2021/03/31 04:10:50;;;;;;;12.75;5.07;;;12.30;67.70;;;;;;5033701;28;20029;-60
2021/03/31 04:13:17;;;;;;;7.88;4.32;;;12.30;68.00;;;;;;5016894;28;20021;-58
2021/03/31 04:15:45;;;;;;;9.25;4.03;;;12.20;68.10;;;;;;5034061;28;20099;-64
2021/03/31 04:18:13;;;;;;;7.20;4.15;;;12.10;68.20;;;;;;5049041;28;20112;-58
2021/03/31 04:20:40;;;;;;;7.45;4.30;;;12.10;67.90;;;;;;5036143;28;20051;-57
2021/03/31 04:23:06;;;;;;;9.25;4.53;;;12.00;68.20;;;;;;5053320;28;20033;-59
2021/03/31 04:25:32;;;;;;;6.38;4.45;;;11.90;68.80;;;;;;5053962;28;20033;-57
2021/03/31 04:28:03;;;;;;;9.77;4.03;;;11.90;69.00;;;;;;5035278;28;20481;-58
2021/03/31 04:30:30;;;;;;;7.70;4.63;;;11.90;68.70;;;;;;5054560;28;20374;-58
2021/03/31 04:32:58;;;;;;;10.23;5.10;;;11.90;68.70;;;;;;5052719;28;20263;-58
2021/03/31 04:35:24;;;;;;;8.50;5.15;;;11.80;69.10;;;;;;5035230;28;20047;-58
2021/03/31 04:37:50;;;;;;;9.45;5.10;;;11.80;68.90;;;;;;5034927;28;20051;-59
2021/03/31 04:40:18;;;;;;;10.27;4.82;;;11.80;69.20;;;;;;5053141;28;20065;-58
2021/03/31 04:42:44;;;;;;;11.95;4.85;;;11.80;69.20;;;;;;5035280;28;20055;-64
2021/03/31 04:45:12;;;;;;;7.60;4.63;;;11.70;68.40;;;;;;5053191;28;20454;-59
2021/03/31 04:47:39;;;;;;;6.22;4.47;;;11.80;68.70;;;;;;5053820;28;20054;-59
2021/03/31 04:50:10;;;;;;;7.30;4.55;;;11.80;69.00;;;;;;5034507;28;20025;-58
2021/03/31 04:52:37;;;;;;;10.80;4.40;;;11.90;68.80;;;;;;5053772;28;20035;-58
2021/03/31 04:55:03;;;;;;;14.55;4.88;;;11.70;69.10;;;;;;5052751;28;20021;-59
2021/03/31 04:57:29;;;;;;;17.35;6.22;;;11.60;70.30;;;;;;5053432;28;20041;-60
2021/03/31 04:59:55;;;;;;;6.22;4.40;;;11.60;70.10;;;;;;5053064;28;20335;-59
2021/03/31 05:02:20;;;;;;;10.90;5.10;;;11.60;70.40;;;;;;5034978;28;20434;-58
2021/03/31 05:04:46;;;;;;;10.80;5.32;;;11.60;70.10;;;;;;5035145;28;20029;-58
2021/03/31 05:07:12;;;;;;;9.43;4.32;;;11.60;70.30;;;;;;5054298;28;20075;-59
2021/03/31 05:09:37;;;;;;;10.80;5.55;;;11.80;70.80;;;;;;5036238;28;20024;-57
2021/03/31 05:12:05;;;;;;;11.85;5.78;;;11.60;71.20;;;;;;5052889;28;20410;-59
2021/03/31 05:14:31;;;;;;;10.70;4.78;;;11.60;71.70;;;;;;5052856;28;20458;-58
2021/03/31 05:16:56;;;;;;;18.63;5.30;;;11.60;72.00;;;;;;5052657;28;20106;-59
2021/03/31 05:19:22;;;;;;;15.00;6.13;;;11.60;72.20;;;;;;5035753;28;20039;-60
2021/03/31 05:21:48;;;;;;;12.02;6.32;;;11.70;72.10;;;;;;5054751;28;20103;-59
2021/03/31 05:24:13;;;;;;;14.85;6.90;;;11.60;72.40;;;;;;5033802;28;20095;-60
2021/03/31 05:26:39;;;;;;;10.38;5.70;;;11.60;73.10;;;;;;5053023;28;20032;-58
2021/03/31 05:29:05;;;;;;;13.77;5.43;;;11.70;72.70;;;;;;5034428;28;20344;-59
2021/03/31 05:31:31;;;;;;;10.88;5.20;;;11.70;72.60;;;;;;5033884;28;20075;-58
2021/03/31 05:33:57;;;;;;;13.02;5.43;;;11.60;72.80;;;;;;5033359;28;20102;-59
2021/03/31 05:36:23;;;;;;;10.50;5.22;;;11.70;72.70;;;;;;5033457;28;20109;-58
2021/03/31 05:38:49;;;;;;;10.35;5.25;;;11.70;73.10;;;;;;5032730;28;20033;-58
2021/03/31 05:41:15;;;;;;;12.57;5.13;;;11.80;72.00;;;;;;5015105;28;20381;-58
2021/03/31 05:43:42;;;;;;;17.35;5.97;;;11.70;71.50;;;;;;5032644;28;20037;-58
2021/03/31 05:46:08;;;;;;;16.80;5.88;;;11.80;70.80;;;;;;5032647;28;20037;-59
2021/03/31 05:48:34;;;;;;;15.73;5.20;;;11.80;70.90;;;;;;5015732;28;20049;-58
2021/03/31 05:51:01;;;;;;;12.25;5.13;;;11.90;71.30;;;;;;5032474;28;20033;-58
2021/03/31 05:53:27;;;;;;;16.98;5.80;;;11.80;70.60;;;;;;5033120;28;20068;-60
2021/03/31 05:55:53;;;;;;;11.55;5.68;;;11.70;71.00;;;;;;5013685;28;20433;-59
2021/03/31 05:58:20;;;;;;;11.70;5.45;;;11.80;71.80;;;;;;5032658;28;20097;-59
2021/03/31 06:00:47;;;;;;;14.23;5.65;;;11.80;70.80;;;;;;5032773;28;20032;-59
2021/03/31 06:03:13;;;;;;;7.40;5.25;;;11.70;70.40;;;;;;5036924;28;20022;-59
2021/03/31 06:05:39;;;;;;;7.38;5.40;;;11.70;70.70;;;;;;5021332;28;20036;-60
2021/03/31 06:08:04;;;;;;;8.45;5.13;;;11.70;70.70;;;;;;5015675;28;20021;-59
2021/03/31 06:10:31;;;;;;;11.90;5.47;;;11.90;70.50;;;;;;5037375;28;20379;-60
2021/03/31 06:13:02;;;;;;;14.18;5.18;;;12.10;70.00;;;;;;5034573;28;20120;-61
2021/03/31 06:15:37;;;;;;;9.27;5.40;;;12.20;69.40;;;;;;5034186;28;20072;-58
2021/03/31 06:18:08;;;;;;;9.93;5.38;;;12.10;68.70;;;;;;5031073;28;20030;-60
2021/03/31 06:20:54;;;;;;;10.70;6.10;;;12.40;68.40;;;;;;5036657;28;20021;-58
2021/03/31 06:23:49;;;;;;;12.80;5.10;;;12.40;68.40;;;;;;5051511;28;20060;-58
2021/03/31 06:26:26;;;;;;;10.57;5.18;;;12.70;67.80;;;;;;5051245;28;20052;-59
2021/03/31 06:29:07;;;;;;;11.57;5.22;;;12.80;68.50;;;;;;5032920;28;20029;-64
2021/03/31 06:31:35;;;;;;;16.92;5.30;;;12.70;67.10;;;;;;5051350;28;20028;-59
2021/03/31 06:34:09;;;;;;;8.45;6.00;;;12.70;66.90;;;;;;5049100;28;20029;-62
2021/03/31 06:37:00;;;;;;;8.63;5.07;;;12.50;67.30;;;;;;5036057;28;20026;-59
2021/03/31 06:39:32;;;;;;;10.18;5.78;;;12.80;66.60;;;;;;5041364;28;20017;-58
2021/03/31 06:42:19;;;;;;;11.05;5.82;;;13.00;66.60;;;;;;5038923;28;20107;-58
2021/03/31 06:49:48;;;;;;;13.30;5.18;;;13.80;67.30;;;;;;5043155;28;20017;-62
2021/03/31 06:52:14;;;;;;;12.85;5.45;;;14.00;65.00;;;;;;5032790;28;20383;-62
2021/03/31 06:54:52;;;;;;;11.98;5.95;;;14.20;64.20;;;;;;5032219;28;20462;-62
2021/03/31 06:57:29;;;;;;;10.25;5.35;;;14.50;63.30;;;;;;5049776;28;20056;-58
2021/03/31 07:00:10;;;;;;;18.50;5.82;;;14.30;61.80;;;;;;5032347;28;20025;-65
2021/03/31 07:02:38;;;;;;;13.10;5.43;;;14.30;62.30;;;;;;5042030;28;20404;-60
2021/03/31 07:05:05;;;;;;;9.93;5.85;;;14.60;62.10;;;;;;5049017;28;20029;-58
2021/03/31 07:07:39;;;;;;;16.33;6.45;;;14.60;61.80;;;;;;5048838;28;20029;-60
2021/03/31 07:10:15;;;;;;;9.95;5.22;;;14.60;61.00;;;;;;5030741;28;20037;-58
2021/03/31 07:12:44;;;;;;;16.08;6.78;;;14.70;61.20;;;;;;5049795;28;20036;-58
2021/03/31 07:15:14;;;;;;;12.52;6.50;;;15.20;60.50;;;;;;5031462;28;20052;-58
2021/03/31 07:17:43;;;;;;;17.97;6.17;;;15.30;60.40;;;;;;5050286;28;20562;-58
2021/03/31 07:20:10;;;;;;;15.10;6.90;;;15.60;59.70;;;;;;5014057;28;20026;-58
2021/03/31 07:22:38;;;;;;;21.40;7.72;;;15.30;59.90;;;;;;5029650;28;20115;-59
2021/03/31 07:25:04;;;;;;;19.63;8.73;;;15.30;59.20;;;;;;5029445;28;20452;-58
2021/03/31 07:27:31;;;;;;;11.98;5.70;;;15.60;58.70;;;;;;5011451;28;20120;-58
2021/03/31 07:30:11;;;;;;;14.93;6.45;;;15.30;58.40;;;;;;5029472;28;20496;-64
2021/03/31 07:32:55;;;;;;;22.70;7.43;;;15.10;59.80;;;;;;5030188;28;20364;-57
2021/03/31 07:35:23;;;;;;;12.75;6.32;;;15.50;58.70;;;;;;5012309;28;20400;-57
2021/03/31 07:37:50;;;;;;;14.88;8.43;;;16.00;58.70;;;;;;5046880;28;20031;-57
2021/03/31 07:40:18;;;;;;;17.75;7.22;;;15.90;58.30;;;;;;5043939;28;20017;-59
2021/03/31 07:42:55;;;;;;;29.38;6.88;;;16.30;57.60;;;;;;5037645;28;20486;-61
2021/03/31 07:45:25;;;;;;;15.63;7.35;;;16.90;56.30;;;;;;5033951;28;20045;-61
2021/03/31 07:47:52;;;;;;;17.35;6.93;;;17.00;55.60;;;;;;5021506;28;20029;-61
2021/03/31 07:50:19;;;;;;;13.25;7.03;;;16.30;56.80;;;;;;5038361;28;20025;-60
2021/03/31 07:52:56;;;;;;;12.82;6.18;;;16.50;57.10;;;;;;5035255;28;20051;-59
2021/03/31 07:55:40;;;;;;;16.67;7.30;;;17.20;56.10;;;;;;5039730;28;20116;-60
2021/03/31 07:58:12;;;;;;;19.13;7.63;;;17.40;54.80;;;;;;5041201;28;20017;-60
2021/03/31 08:00:44;;;;;;;14.90;7.57;;;17.00;55.00;;;;;;5015081;28;20033;-58
2021/03/31 08:03:10;;;;;;;16.33;7.45;;;16.80;56.00;;;;;;5012275;28;20124;-59
2021/03/31 08:06:15;;;;;;;16.95;7.13;;;17.20;55.50;;;;;;5012089;28;20029;-59
2021/03/31 08:08:44;;;;;;;12.00;6.82;;;17.60;54.60;;;;;;5012232;28;20030;-58
2021/03/31 08:11:09;;;;;;;15.93;7.60;;;17.30;54.80;;;;;;5029138;28;20554;-60
2021/03/31 08:13:41;;;;;;;16.17;7.35;;;17.80;54.30;;;;;;5012119;28;20129;-58
2021/03/31 08:16:34;;;;;;;15.80;6.93;;;18.10;54.10;;;;;;5034127;28;20037;-59
2021/03/31 08:19:02;;;;;;;15.43;6.65;;;18.30;53.20;;;;;;5031221;28;20033;-66
2021/03/31 08:21:30;;;;;;;15.07;7.60;;;18.50;52.00;;;;;;5049042;28;20538;-58
2021/03/31 08:23:59;;;;;;;21.02;8.32;;;18.30;52.50;;;;;;5049841;28;20037;-60
2021/03/31 08:26:26;;;;;;;22.25;7.93;;;18.50;51.90;;;;;;5031504;28;20111;-59
2021/03/31 08:28:51;;;;;;;19.80;8.48;;;18.60;52.20;;;;;;5015781;28;20033;-60
2021/03/31 08:31:19;;;;;;;23.23;7.53;;;19.30;50.80;;;;;;5034720;28;20471;-60
2021/03/31 08:33:46;;;;;;;19.75;7.78;;;19.70;50.80;;;;;;5049650;28;20090;-59
2021/03/31 08:36:14;;;;;;;25.25;9.23;;;20.10;49.90;;;;;;5030967;28;20025;-59
2021/03/31 08:38:40;;;;;;;19.95;8.05;;;20.40;49.30;;;;;;5031182;28;20025;-59
2021/03/31 08:41:16;;;;;;;17.38;7.90;;;21.00;48.10;;;;;;5048709;28;20050;-60
2021/03/31 08:43:43;;;;;;;23.25;7.63;;;20.40;48.60;;;;;;5048436;28;20041;-58
2021/03/31 08:46:09;;;;;;;25.70;8.73;;;19.90;49.50;;;;;;5047244;28;20041;-58
2021/03/31 08:48:42;;;;;;;18.30;7.85;;;20.40;49.40;;;;;;5043865;28;20033;-59
2021/03/31 08:51:18;;;;;;;16.63;8.45;;;21.10;49.00;;;;;;5040793;28;20040;-59
2021/03/31 08:53:44;;;;;;;16.90;8.80;;;21.40;47.70;;;;;;5041911;28;20025;-60
2021/03/31 08:56:23;;;;;;;23.27;9.00;;;21.00;47.40;;;;;;5040048;28;20020;-59
2021/03/31 08:58:54;;;;;;;22.27;8.48;;;21.40;48.20;;;;;;5039819;28;20340;-58
2021/03/31 09:01:30;;;;;;;22.35;8.02;;;21.00;47.60;;;;;;5022687;28;20051;-64
2021/03/31 09:04:22;;;;;;;15.45;7.80;;;21.60;49.90;;;;;;5052961;28;20044;-63
2021/03/31 09:06:48;;;;;;;15.10;8.00;;;22.10;50.60;;;;;;5028161;28;20056;-59
2021/03/31 09:09:14;;;;;;;29.65;9.57;;;22.20;48.70;;;;;;5050810;28;20036;-60
2021/03/31 09:11:40;;;;;;;18.85;10.10;;;22.60;45.70;;;;;;5052820;28;20058;-60
2021/03/31 09:14:25;;;;;;;15.82;9.55;;;22.10;45.50;;;;;;5052040;28;20040;-60
2021/03/31 09:16:53;;;;;;;20.08;10.32;;;21.90;46.00;;;;;;5034831;28;20029;-59
2021/03/31 09:19:20;;;;;;;18.30;10.00;;;22.20;45.60;;;;;;5051792;28;20105;-59
2021/03/31 09:21:46;;;;;;;12.82;8.88;;;22.00;45.80;;;;;;5027622;28;20054;-60
2021/03/31 09:24:15;;;;;;;22.08;11.00;;;22.90;45.20;;;;;;5060155;28;20094;-59
2021/03/31 09:26:42;;;;;;;21.77;9.77;;;23.40;44.30;;;;;;5053093;28;20028;-59
2021/03/31 09:29:15;;;;;;;18.48;10.65;;;23.70;43.30;;;;;;5063100;28;20035;-59
2021/03/31 09:31:42;;;;;;;18.98;10.63;;;23.70;43.30;;;;;;5064787;28;20028;-60
2021/03/31 09:34:09;;;;;;;23.83;11.13;;;23.20;43.80;;;;;;5057788;28;20134;-61
2021/03/31 09:36:35;;;;;;;19.48;10.85;;;23.70;43.50;;;;;;5050497;28;20044;-59
2021/03/31 09:39:02;;;;;;;22.35;12.27;;;24.20;43.10;;;;;;5047706;28;20025;-61
2021/03/31 09:41:28;;;;;;;30.80;13.43;;;24.60;42.10;;;;;;5069641;28;20063;-59
2021/03/31 09:43:55;;;;;;;18.60;12.23;;;24.70;42.30;;;;;;5055561;28;20036;-59
2021/03/31 09:46:28;;;;;;;18.90;12.25;;;25.10;46.70;;;;;;5058209;28;20080;-60
2021/03/31 09:48:55;;;;;;;22.42;11.88;;;25.20;40.50;;;;;;5053592;28;20029;-60
2021/03/31 09:51:22;;;;;;;20.35;13.02;;;25.50;40.80;;;;;;5059824;28;20089;-61
2021/03/31 09:53:52;;;;;;;14.57;10.57;;;25.50;40.80;;;;;;5060465;28;20039;-62
2021/03/31 09:56:18;;;;;;;23.80;12.23;;;26.10;40.60;;;;;;5052455;28;20032;-59
2021/03/31 09:58:47;;;;;;;16.02;11.00;;;26.40;39.80;;;;;;5050206;28;20033;-59
2021/03/31 10:01:14;;;;;;;30.73;13.02;;;26.10;39.80;;;;;;5049202;28;20028;-62
2021/03/31 10:03:42;;;;;;;25.27;13.07;;;26.30;40.30;;;;;;5053418;28;20043;-59
2021/03/31 10:06:19;;;;;;;26.38;12.88;;;26.40;39.20;;;;;;5064094;28;20086;-60
2021/03/31 10:08:45;;;;;;;17.75;11.70;;;26.30;39.60;;;;;;5069891;28;20461;-60
2021/03/31 10:11:31;;;;;;;18.45;11.50;;;26.40;40.90;;;;;;5057614;28;20025;-59
2021/03/31 10:14:00;;;;;;;20.50;12.30;;;27.00;40.00;;;;;;5063266;28;20386;-60
2021/03/31 10:16:33;;;;;;;24.13;12.82;;;26.70;38.60;;;;;;5080200;28;20028;-61
2021/03/31 10:19:00;;;;;;;15.07;11.25;;;26.80;39.30;;;;;;5067963;28;20354;-60
2021/03/31 10:21:32;;;;;;;24.42;12.50;;;27.50;45.10;;;;;;5066372;28;20418;-62
2021/03/31 10:23:59;;;;;;;18.10;12.18;;;27.50;40.60;;;;;;5052686;28;20055;-60
2021/03/31 10:26:26;;;;;;;19.58;11.55;;;27.40;39.00;;;;;;5050413;28;20032;-60
2021/03/31 10:29:00;;;;;;;19.73;12.05;;;27.50;38.40;;;;;;5033892;28;20125;-59
2021/03/31 10:31:31;;;;;;;17.40;12.35;;;27.00;37.90;;;;;;5024034;28;20051;-59
2021/03/31 10:33:58;;;;;;;22.88;11.52;;;27.30;39.30;;;;;;5032983;28;20112;-61
2021/03/31 10:36:51;;;;;;;16.48;10.88;;;27.60;38.20;;;;;;5028284;28;20030;-59
2021/03/31 10:50:57;;;;;;;21.17;11.73;;;27.30;37.60;;;;;;5036799;28;20032;-60
2021/03/31 10:53:34;;;;;;;21.85;11.75;;;26.70;38.00;;;;;;5036532;28;20095;-59
2021/03/31 10:56:02;;;;;;;21.23;11.07;;;27.50;37.90;;;;;;5040636;28;20050;-66
2021/03/31 10:58:28;;;;;;;17.08;10.85;;;27.80;36.40;;;;;;5040910;28;20044;-61
2021/03/31 11:00:54;;;;;;;18.27;12.20;;;27.40;37.90;;;;;;5041275;28;20029;-61
2021/03/31 11:03:21;;;;;;;20.08;11.63;;;27.70;37.10;;;;;;5016423;28;20033;-60
2021/03/31 11:05:51;;;;;;;33.47;11.68;;;27.60;38.20;;;;;;5040986;28;20037;-59
2021/03/31 11:08:16;;;;;;;19.05;11.43;;;27.70;37.20;;;;;;5021427;28;20029;-59
2021/03/31 11:10:42;;;;;;;19.13;11.23;;;27.70;37.00;;;;;;5045316;28;20108;-64
2021/03/31 11:13:08;;;;;;;17.27;10.30;;;27.30;37.00;;;;;;5040720;28;20033;-63
2021/03/31 11:15:34;;;;;;;17.00;11.18;;;27.70;36.90;;;;;;5050037;28;20472;-59
2021/03/31 11:18:17;;;;;;;20.83;11.32;;;27.40;37.10;;;;;;5024908;28;20120;-59
2021/03/31 11:21:21;;;;;;;20.98;11.35;;;27.40;37.90;;;;;;5030866;28;20047;-59
2021/03/31 11:26:31;;;;;;;16.30;10.18;;;28.00;36.60;;;;;;5015160;28;20047;-59
2021/03/31 11:28:57;;;;;;;14.70;10.25;;;27.90;36.30;;;;;;5011759;28;20390;-58
2021/03/31 11:31:23;;;;;;;17.60;10.35;;;27.80;36.80;;;;;;5028817;28;20282;-59
2021/03/31 11:33:50;;;;;;;14.55;9.35;;;28.00;36.50;;;;;;5029731;28;20057;-58
2021/03/31 11:36:16;;;;;;;18.33;9.60;;;27.60;36.60;;;;;;5038644;28;20029;-61
2021/03/31 11:38:44;;;;;;;18.92;9.18;;;27.70;36.50;;;;;;5026880;28;20095;-60
2021/03/31 11:41:09;;;;;;;15.68;9.07;;;27.70;35.80;;;;;;5018484;28;20063;-60
2021/03/31 11:43:38;;;;;;;16.02;9.57;;;27.30;36.10;;;;;;5050686;28;20041;-60
2021/03/31 11:46:07;;;;;;;12.38;8.98;;;27.50;35.60;;;;;;5047401;28;20049;-67
2021/03/31 11:48:33;;;;;;;17.13;8.63;;;26.90;35.80;;;;;;5030105;28;20029;-59
2021/03/31 11:50:59;;;;;;;15.63;9.25;;;27.10;36.10;;;;;;5011929;28;20025;-59
2021/03/31 11:53:31;;;;;;;14.23;9.52;;;27.10;36.00;;;;;;5011659;28;20188;-59
2021/03/31 11:55:57;;;;;;;14.15;9.75;;;27.30;36.30;;;;;;5030113;28;20063;-60
2021/03/31 11:58:26;;;;;;;16.83;9.35;;;27.70;36.70;;;;;;5011914;28;20212;-59
2021/03/31 12:00:52;;;;;;;13.55;8.77;;;28.00;35.70;;;;;;5030064;28;20102;-58
2021/03/31 12:03:20;;;;;;;17.08;8.90;;;27.80;35.60;;;;;;5040147;28;20045;-64
2021/03/31 12:05:47;;;;;;;14.43;8.77;;;27.80;35.70;;;;;;5026552;28;20091;-60
2021/03/31 12:08:13;;;;;;;14.27;8.68;;;26.70;35.90;;;;;;5028416;28;20021;-51
2021/03/31 12:10:38;;;;;;;16.45;8.80;;;27.00;37.90;;;;;;5022833;28;20393;-50
2021/03/31 12:13:04;;;;;;;13.15;8.65;;;26.80;36.70;;;;;;5049757;28;20033;-51
2021/03/31 12:15:30;;;;;;;20.65;8.13;;;26.90;37.10;;;;;;5038103;28;20113;-53
2021/03/31 12:17:56;;;;;;;13.65;8.23;;;27.10;37.10;;;;;;5019568;28;20027;-49
2021/03/31 12:20:21;;;;;;;11.50;8.10;;;27.30;36.90;;;;;;5020366;28;20028;-54
2021/03/31 12:22:49;;;;;;;14.27;9.18;;;27.30;35.70;;;;;;5040288;28;20446;-51
2021/03/31 12:25:15;;;;;;;17.67;7.15;;;27.40;37.60;;;;;;5058077;28;20032;-51
2021/03/31 12:27:43;;;;;;;8.60;5.97;;;27.40;39.40;;;;;;5062255;28;20036;-51
2021/03/31 12:30:12;;;;;;;10.50;6.00;;;27.40;40.70;;;;;;5058926;28;20033;-68
2021/03/31 12:32:39;;;;;;;12.57;6.97;;;27.20;40.80;;;;;;5060239;28;20032;-51
2021/03/31 12:35:06;;;;;;;22.85;8.25;;;27.30;40.90;;;;;;5053503;28;20079;-67
2021/03/31 12:37:32;;;;;;;14.40;8.77;;;27.40;38.80;;;;;;5053695;28;20082;-53
2021/03/31 12:39:58;;;;;;;14.15;9.80;;;27.40;38.40;;;;;;5064901;28;20032;-52
2021/03/31 12:42:24;;;;;;;17.92;8.15;;;27.20;36.00;;;;;;5052567;28;20447;-53
2021/03/31 12:44:52;;;;;;;15.77;7.70;;;27.20;37.00;;;;;;5053353;28;20040;-52
2021/03/31 12:47:20;;;;;;;11.20;7.75;;;27.20;38.80;;;;;;5069553;28;20036;-51
2021/03/31 12:49:48;;;;;;;14.35;7.85;;;27.10;38.50;;;;;;5070364;28;20068;-52
2021/03/31 12:52:15;;;;;;;11.35;6.88;;;27.30;38.80;;;;;;5069445;28;20080;-51
2021/03/31 12:55:08;;;;;;;14.35;8.52;;;27.40;41.60;;;;;;5053489;28;20456;-50
2021/03/31 12:57:34;;;;;;;18.60;9.73;;;27.40;37.30;;;;;;5069844;28;20067;-51
2021/03/31 13:00:02;;;;;;;13.00;8.73;;;27.70;36.40;;;;;;5070007;28;20060;-51
2021/03/31 13:02:28;;;;;;;17.35;9.15;;;27.60;36.80;;;;;;5052007;28;20051;-51
2021/03/31 13:04:54;;;;;;;13.93;7.43;;;27.50;36.10;;;;;;5070103;28;20044;-50
2021/03/31 13:07:21;;;;;;;12.95;7.85;;;27.70;39.40;;;;;;5052570;28;20040;-51
2021/03/31 13:09:47;;;;;;;16.58;8.23;;;27.60;39.20;;;;;;5048504;28;20035;-55